Time;durP1;ratioP1;P1;durP2;ratioP2;P2;SDS_P1;SDS_P2;PMS_P1;PMS_P2;Temp;Humidity;BMP_temperature;BMP_pressure;BME280_temperature;BME280_humidity;BME280_pressure;Samples;Min_cycle;Max_cycle;Signal;HPM_P1;HPM_P2
2022/09/07 00:01:39;;;;;;;1.93;0.80;;;22.80;99.90;;;;;;5049209;28;20327;-50
2022/09/07 00:04:04;;;;;;;5.07;1.43;;;22.60;99.90;;;;;;5049558;28;20255;-47
2022/09/07 00:06:33;;;;;;;7.47;1.20;;;22.50;99.90;;;;;;5049156;28;20208;-45
2022/09/07 00:09:00;;;;;;;3.13;1.07;;;22.20;99.90;;;;;;5049469;28;20200;-50
2022/09/07 00:11:26;;;;;;;4.63;0.90;;;22.20;99.90;;;;;;5047966;28;20892;-45
2022/09/07 00:13:52;;;;;;;4.83;0.90;;;21.90;99.90;;;;;;5052147;28;20436;-48
2022/09/07 00:16:29;;;;;;;6.37;0.90;;;21.70;99.90;;;;;;5053016;28;20981;-47
2022/09/07 00:18:56;;;;;;;5.80;1.20;;;21.40;99.90;;;;;;5053745;28;20193;-47
2022/09/07 00:21:23;;;;;;;5.80;1.20;;;21.30;99.90;;;;;;5056062;28;20474;-50
2022/09/07 00:23:49;;;;;;;1.57;0.73;;;21.20;99.90;;;;;;5053435;28;20894;-48
2022/09/07 00:26:20;;;;;;;2.60;0.80;;;21.10;99.90;;;;;;5053295;28;20454;-47
2022/09/07 00:28:45;;;;;;;4.90;1.23;;;21.10;99.90;;;;;;5052505;28;20428;-48
2022/09/07 00:31:15;;;;;;;3.47;0.80;;;21.10;99.90;;;;;;5052952;28;20424;-50
2022/09/07 00:33:42;;;;;;;1.93;0.90;;;20.90;99.90;;;;;;5053198;28;20829;-46
2022/09/07 00:36:07;;;;;;;3.50;1.23;;;20.90;99.90;;;;;;5053194;28;20562;-48
2022/09/07 00:38:34;;;;;;;4.33;1.20;;;20.90;99.90;;;;;;5051504;28;20958;-50
2022/09/07 00:40:59;;;;;;;4.50;1.20;;;20.80;99.90;;;;;;5052698;28;20205;-49
2022/09/07 00:43:29;;;;;;;1.20;0.80;;;20.70;99.90;;;;;;5052675;28;20744;-48
2022/09/07 00:45:55;;;;;;;1.73;0.87;;;20.70;99.90;;;;;;5052869;28;20533;-51
2022/09/07 00:48:25;;;;;;;1.53;1.10;;;20.70;99.90;;;;;;5052160;28;20424;-49
2022/09/07 00:50:59;;;;;;;4.17;1.10;;;20.50;99.90;;;;;;5052672;28;20217;-46
2022/09/07 00:53:29;;;;;;;3.50;1.00;;;20.40;99.90;;;;;;5051300;28;20450;-48
2022/09/07 00:55:57;;;;;;;5.20;1.40;;;20.40;99.90;;;;;;5052410;28;20819;-48
2022/09/07 00:58:23;;;;;;;2.47;1.20;;;20.50;99.90;;;;;;5051179;28;20454;-46
2022/09/07 01:00:50;;;;;;;4.73;0.93;;;20.50;99.90;;;;;;5051362;28;20428;-44
2022/09/07 01:03:21;;;;;;;1.57;0.90;;;20.40;99.90;;;;;;5051481;28;20432;-51
2022/09/07 01:06:13;;;;;;;3.77;1.30;;;20.40;99.90;;;;;;5052148;28;20828;-50
2022/09/07 01:08:40;;;;;;;4.00;1.30;;;20.30;99.90;;;;;;5051750;28;20420;-51
2022/09/07 01:11:06;;;;;;;2.80;1.10;;;20.20;99.90;;;;;;5052583;28;20509;-45
2022/09/07 01:13:32;;;;;;;2.60;1.10;;;20.20;99.90;;;;;;5052260;28;20412;-47
2022/09/07 01:16:03;;;;;;;3.93;1.20;;;20.10;99.90;;;;;;5052143;28;20529;-51
2022/09/07 01:18:50;;;;;;;2.60;1.20;;;20.10;99.90;;;;;;5051546;28;20674;-49
2022/09/07 01:21:33;;;;;;;3.00;1.30;;;20.00;99.90;;;;;;5049476;28;20930;-51
2022/09/07 01:24:02;;;;;;;3.40;1.30;;;20.10;99.90;;;;;;5051760;28;20420;-50
2022/09/07 01:26:39;;;;;;;2.70;1.40;;;20.00;99.90;;;;;;5052198;28;20408;-47
2022/09/07 01:29:20;;;;;;;3.03;1.20;;;20.00;99.90;;;;;;5051606;28;20443;-45
2022/09/07 01:32:09;;;;;;;2.70;1.00;;;19.90;99.90;;;;;;5050000;28;20427;-51
2022/09/07 01:34:37;;;;;;;5.47;1.27;;;19.90;99.90;;;;;;5049418;28;20416;-49
2022/09/07 01:37:20;;;;;;;2.90;1.10;;;19.90;99.90;;;;;;5050438;28;20483;-52
2022/09/07 01:39:54;;;;;;;1.37;0.93;;;19.80;99.90;;;;;;5049629;28;20420;-51
2022/09/07 01:42:26;;;;;;;2.00;1.30;;;19.70;99.90;;;;;;5051056;28;20403;-52
2022/09/07 01:44:59;;;;;;;2.80;1.10;;;19.70;99.90;;;;;;5051793;28;20424;-51
2022/09/07 01:47:37;;;;;;;3.27;1.23;;;19.70;99.90;;;;;;5051451;28;20888;-48
2022/09/07 01:50:14;;;;;;;3.90;1.17;;;19.70;99.90;;;;;;5051817;28;20412;-47
2022/09/07 01:52:48;;;;;;;2.10;1.10;;;19.70;99.90;;;;;;5052152;28;20452;-47
2022/09/07 01:55:20;;;;;;;1.87;1.23;;;19.80;99.90;;;;;;5051691;28;20459;-50
2022/09/07 01:58:06;;;;;;;1.40;0.73;;;19.80;99.90;;;;;;5049913;28;20526;-52
2022/09/07 02:00:34;;;;;;;1.47;0.90;;;19.70;99.90;;;;;;5051376;28;20423;-46
2022/09/07 02:03:11;;;;;;;2.20;0.90;;;19.60;99.90;;;;;;5048880;28;20427;-50
2022/09/07 02:05:50;;;;;;;2.30;0.90;;;19.70;99.90;;;;;;5039385;28;20466;-50
2022/09/07 02:08:28;;;;;;;2.33;0.80;;;19.60;99.90;;;;;;5050857;28;20420;-47
2022/09/07 02:11:00;;;;;;;1.33;0.97;;;19.60;99.90;;;;;;5051020;28;20473;-47
2022/09/07 02:13:41;;;;;;;1.27;1.10;;;19.60;99.90;;;;;;5050000;28;20438;-52
2022/09/07 02:16:12;;;;;;;1.60;1.10;;;19.40;99.90;;;;;;5051145;28;20795;-48
2022/09/07 02:18:46;;;;;;;1.93;1.10;;;19.40;99.90;;;;;;5050635;28;20423;-46
2022/09/07 02:21:15;;;;;;;4.03;1.50;;;19.40;99.90;;;;;;5054228;28;20419;-49
2022/09/07 02:23:57;;;;;;;1.30;1.20;;;19.40;99.90;;;;;;5051193;28;20424;-47
2022/09/07 02:26:27;;;;;;;2.10;1.00;;;19.40;99.90;;;;;;5050906;28;20503;-48
2022/09/07 02:28:53;;;;;;;1.10;0.87;;;19.40;99.90;;;;;;5050310;28;20478;-51
2022/09/07 02:31:19;;;;;;;1.00;0.73;;;19.30;99.90;;;;;;5050947;28;20443;-50
2022/09/07 02:33:45;;;;;;;1.53;0.87;;;19.30;99.90;;;;;;5050513;28;20420;-48
2022/09/07 02:36:13;;;;;;;1.80;0.90;;;19.30;99.90;;;;;;5049905;28;20217;-48
2022/09/07 02:38:39;;;;;;;2.20;0.90;;;19.20;99.90;;;;;;5049157;28;20877;-49
2022/09/07 02:41:25;;;;;;;1.20;1.00;;;19.10;99.90;;;;;;5050644;28;20408;-47
2022/09/07 02:43:51;;;;;;;1.50;1.10;;;19.10;99.90;;;;;;5050398;28;20186;-50
2022/09/07 02:46:44;;;;;;;1.67;0.80;;;19.20;99.90;;;;;;5050392;28;20925;-52
2022/09/07 02:49:32;;;;;;;1.80;1.17;;;19.20;99.90;;;;;;5050470;28;20686;-48
2022/09/07 02:52:51;;;;;;;3.73;1.13;;;19.10;99.90;;;;;;5050527;28;20442;-50
2022/09/07 02:55:31;;;;;;;1.40;1.30;;;19.10;99.90;;;;;;5067578;28;20552;-50
2022/09/07 02:58:03;;;;;;;3.67;1.10;;;19.00;99.90;;;;;;5066747;28;20419;-50
2022/09/07 03:00:34;;;;;;;2.00;1.13;;;19.00;99.90;;;;;;5047420;28;20432;-49
2022/09/07 03:03:25;;;;;;;1.57;1.10;;;19.00;99.90;;;;;;5050505;28;20423;-48
2022/09/07 03:06:03;;;;;;;2.10;1.03;;;19.00;99.90;;;;;;5050270;28;20585;-52
2022/09/07 03:08:39;;;;;;;1.70;0.90;;;19.00;99.90;;;;;;5049546;28;20428;-47
2022/09/07 03:11:06;;;;;;;4.43;1.30;;;19.00;99.90;;;;;;5050078;28;20423;-52
2022/09/07 03:13:32;;;;;;;2.90;1.40;;;18.90;99.90;;;;;;5049925;28;20991;-52
2022/09/07 03:15:58;;;;;;;1.03;0.93;;;18.90;99.90;;;;;;5050025;28;20503;-49
2022/09/07 03:18:25;;;;;;;1.70;1.00;;;18.90;99.90;;;;;;5049591;28;20420;-51
2022/09/07 03:20:51;;;;;;;1.63;1.30;;;18.90;99.90;;;;;;5053359;28;20482;-52
2022/09/07 03:23:17;;;;;;;1.13;1.03;;;18.80;99.90;;;;;;5049973;28;20427;-51
2022/09/07 03:25:43;;;;;;;1.50;1.20;;;18.80;99.90;;;;;;5049450;28;20424;-51
2022/09/07 03:28:09;;;;;;;1.70;1.20;;;18.70;99.90;;;;;;5049277;28;20208;-49
2022/09/07 03:30:35;;;;;;;1.60;1.10;;;18.50;99.90;;;;;;5049734;28;20204;-47
2022/09/07 03:33:00;;;;;;;2.10;1.00;;;18.50;99.90;;;;;;5049830;28;20428;-51
2022/09/07 03:35:26;;;;;;;1.00;0.90;;;18.50;99.90;;;;;;5049827;28;20462;-52
2022/09/07 03:37:52;;;;;;;1.70;1.07;;;18.40;99.90;;;;;;5048228;28;20201;-49
2022/09/07 03:40:18;;;;;;;2.07;1.00;;;18.40;99.90;;;;;;5049469;28;20660;-48
2022/09/07 03:42:48;;;;;;;1.63;1.30;;;18.30;99.90;;;;;;5049768;28;20185;-51
2022/09/07 03:45:13;;;;;;;1.47;1.37;;;18.20;99.90;;;;;;5049582;28;20199;-48
2022/09/07 03:47:39;;;;;;;1.03;0.93;;;18.20;99.90;;;;;;5049007;28;20891;-49
2022/09/07 03:50:06;;;;;;;1.67;1.20;;;18.20;99.90;;;;;;5049329;28;20275;-50
2022/09/07 03:52:33;;;;;;;1.30;0.80;;;18.20;99.90;;;;;;5049691;28;20243;-51
2022/09/07 03:54:58;;;;;;;2.23;1.30;;;18.20;99.90;;;;;;5047901;28;20424;-49
2022/09/07 03:57:24;;;;;;;1.27;1.00;;;18.20;99.90;;;;;;5048762;28;20424;-47
2022/09/07 03:59:50;;;;;;;1.50;1.00;;;18.20;99.90;;;;;;5049401;28;20272;-51
2022/09/07 04:02:16;;;;;;;1.30;1.20;;;18.20;99.90;;;;;;5046156;28;20209;-50
2022/09/07 04:04:42;;;;;;;4.23;1.17;;;18.10;99.90;;;;;;5049399;28;20186;-51
2022/09/07 04:07:08;;;;;;;1.10;1.00;;;18.20;99.90;;;;;;5048717;28;20414;-47
2022/09/07 04:09:34;;;;;;;1.20;1.10;;;18.20;99.90;;;;;;5042028;28;20914;-52
2022/09/07 04:12:00;;;;;;;1.27;1.10;;;18.20;99.90;;;;;;5044625;28;20487;-51
2022/09/07 04:14:26;;;;;;;2.37;1.20;;;18.20;99.90;;;;;;5049427;28;20188;-51
2022/09/07 04:16:51;;;;;;;1.23;1.00;;;18.20;99.90;;;;;;5028859;28;20210;-49
2022/09/07 04:19:17;;;;;;;1.90;0.93;;;18.20;99.90;;;;;;5047913;28;20176;-51
2022/09/07 04:21:45;;;;;;;2.17;1.43;;;18.20;99.90;;;;;;5049094;28;20189;-51
2022/09/07 04:24:12;;;;;;;1.10;1.00;;;18.10;99.90;;;;;;5049059;28;20420;-49
2022/09/07 04:26:38;;;;;;;1.13;1.00;;;18.10;99.90;;;;;;5048602;28;20511;-51
2022/09/07 04:29:05;;;;;;;1.23;1.10;;;18.10;99.90;;;;;;5049264;28;20507;-49
2022/09/07 04:31:32;;;;;;;1.23;1.13;;;18.00;99.90;;;;;;5049225;28;20192;-52
2022/09/07 04:33:58;;;;;;;1.20;1.10;;;18.00;99.90;;;;;;5049086;28;20459;-51
2022/09/07 04:36:24;;;;;;;3.67;1.03;;;18.00;99.90;;;;;;5048063;28;20492;-49
2022/09/07 04:38:55;;;;;;;1.23;0.93;;;18.00;99.90;;;;;;5048092;28;20204;-51
2022/09/07 04:41:21;;;;;;;1.73;1.10;;;18.00;99.90;;;;;;5046921;28;20188;-51
2022/09/07 04:43:47;;;;;;;1.33;1.23;;;18.00;99.90;;;;;;5049500;28;20781;-51
2022/09/07 04:46:20;;;;;;;1.97;1.07;;;18.00;99.90;;;;;;5046399;28;20413;-47
2022/09/07 04:48:51;;;;;;;1.67;1.00;;;18.00;99.90;;;;;;5040709;28;20478;-51
2022/09/07 04:51:17;;;;;;;1.60;1.50;;;17.90;99.90;;;;;;5047124;28;20503;-46
2022/09/07 04:53:48;;;;;;;1.30;1.20;;;17.90;99.90;;;;;;5049160;28;20431;-49
2022/09/07 04:56:14;;;;;;;1.50;1.10;;;17.90;99.90;;;;;;5049347;28;20464;-52
2022/09/07 04:58:40;;;;;;;1.23;1.13;;;17.90;99.90;;;;;;5049107;28;20442;-47
2022/09/07 05:01:06;;;;;;;2.03;1.20;;;17.80;99.90;;;;;;5053003;28;20416;-52
2022/09/07 05:03:34;;;;;;;1.80;1.20;;;17.90;99.90;;;;;;5052639;28;20243;-51
2022/09/07 05:06:01;;;;;;;1.30;1.20;;;17.80;99.90;;;;;;5052698;28;20501;-49
2022/09/07 05:08:26;;;;;;;1.93;1.33;;;17.70;99.90;;;;;;5050851;28;20466;-49
2022/09/07 05:10:53;;;;;;;3.07;1.60;;;17.70;99.90;;;;;;5052522;28;20489;-47
2022/09/07 05:13:19;;;;;;;1.47;1.37;;;17.60;99.90;;;;;;5052762;28;20235;-47
2022/09/07 05:15:45;;;;;;;1.90;1.60;;;17.60;99.90;;;;;;5052494;28;20498;-50
2022/09/07 05:18:12;;;;;;;2.40;2.20;;;17.50;99.90;;;;;;5051754;28;20452;-46
2022/09/07 05:20:41;;;;;;;2.07;1.80;;;17.50;99.90;;;;;;5055352;28;20178;-51
2022/09/07 05:23:07;;;;;;;1.73;1.63;;;17.50;99.90;;;;;;5052600;28;20412;-51
2022/09/07 05:25:34;;;;;;;1.90;1.80;;;17.50;99.90;;;;;;5052374;28;20420;-47
2022/09/07 05:28:00;;;;;;;2.20;2.00;;;17.50;99.90;;;;;;5051247;28;21018;-50
2022/09/07 05:30:26;;;;;;;1.87;1.77;;;17.50;99.90;;;;;;5052308;28;20507;-51
2022/09/07 05:32:51;;;;;;;3.10;1.83;;;17.50;99.90;;;;;;5052085;28;20181;-52
2022/09/07 05:35:18;;;;;;;2.07;1.87;;;17.40;99.90;;;;;;5052169;28;20213;-52
2022/09/07 05:37:48;;;;;;;1.87;1.70;;;17.50;99.90;;;;;;5049799;28;20716;-51
2022/09/07 05:40:14;;;;;;;2.20;2.00;;;17.50;99.90;;;;;;5053234;28;20456;-51
2022/09/07 05:42:40;;;;;;;3.30;2.30;;;17.50;99.90;;;;;;5052208;28;20447;-49
2022/09/07 05:45:06;;;;;;;2.80;2.37;;;17.50;99.90;;;;;;5052086;28;21122;-51
2022/09/07 05:47:32;;;;;;;2.20;2.00;;;17.50;99.90;;;;;;5051123;28;20515;-50
2022/09/07 05:49:58;;;;;;;2.23;1.80;;;17.50;99.90;;;;;;5052005;28;20508;-49
2022/09/07 05:52:24;;;;;;;3.13;2.00;;;17.60;99.90;;;;;;5051839;28;20182;-49
2022/09/07 05:54:50;;;;;;;2.07;1.60;;;17.70;99.90;;;;;;5052160;28;20420;-50
2022/09/07 05:57:16;;;;;;;2.80;1.80;;;17.70;99.90;;;;;;5051074;28;20206;-51
2022/09/07 05:59:42;;;;;;;2.23;2.03;;;17.80;99.90;;;;;;5051886;28;20446;-48
2022/09/07 06:02:13;;;;;;;3.57;1.93;;;17.90;99.90;;;;;;5051475;28;20186;-48
2022/09/07 06:04:39;;;;;;;3.03;2.10;;;18.00;99.90;;;;;;5045509;28;20689;-47
2022/09/07 06:07:05;;;;;;;2.63;1.53;;;18.10;99.90;;;;;;5049278;28;20424;-49
2022/09/07 06:09:30;;;;;;;4.20;1.60;;;18.30;99.90;;;;;;5048980;28;20430;-52
2022/09/07 06:11:56;;;;;;;2.63;1.70;;;18.40;99.90;;;;;;5048899;28;20185;-51
2022/09/07 06:14:22;;;;;;;5.20;2.03;;;18.60;99.90;;;;;;5050138;28;20204;-51
2022/09/07 06:16:47;;;;;;;3.43;2.10;;;18.70;99.90;;;;;;5047294;28;20213;-50
2022/09/07 06:19:13;;;;;;;1.80;1.70;;;18.70;99.90;;;;;;5048748;28;20178;-50
2022/09/07 06:21:39;;;;;;;2.80;2.10;;;18.90;99.90;;;;;;5050661;28;20228;-51
2022/09/07 06:24:05;;;;;;;5.00;2.00;;;18.90;99.90;;;;;;5051130;28;20318;-50
2022/09/07 06:26:31;;;;;;;1.83;1.70;;;18.90;99.90;;;;;;5051094;28;20315;-47
2022/09/07 06:28:57;;;;;;;1.70;1.60;;;18.90;99.90;;;;;;5050810;28;20515;-48
2022/09/07 06:31:24;;;;;;;1.90;1.70;;;18.80;99.90;;;;;;5051398;28;20427;-48
2022/09/07 06:33:50;;;;;;;1.80;1.70;;;18.80;99.90;;;;;;5051086;28;20424;-51
2022/09/07 06:36:19;;;;;;;1.90;1.73;;;18.80;99.90;;;;;;5051080;28;20475;-50
2022/09/07 06:38:45;;;;;;;4.20;2.30;;;18.80;99.90;;;;;;5049642;28;20511;-50
2022/09/07 06:41:20;;;;;;;2.67;1.93;;;18.70;99.90;;;;;;5050742;28;20424;-49
2022/09/07 06:43:46;;;;;;;2.23;1.60;;;18.60;99.90;;;;;;5051279;28;20416;-53
2022/09/07 06:46:13;;;;;;;2.53;1.60;;;18.70;99.90;;;;;;5048718;28;20792;-52
2022/09/07 06:48:38;;;;;;;4.27;1.83;;;18.80;99.90;;;;;;5052346;28;20428;-50
2022/09/07 06:51:08;;;;;;;3.23;1.70;;;19.10;99.90;;;;;;5049312;28;20435;-48
2022/09/07 06:53:36;;;;;;;4.30;1.80;;;19.40;99.90;;;;;;5051773;28;20687;-47
2022/09/07 06:56:06;;;;;;;2.33;2.13;;;19.70;99.90;;;;;;5049579;28;20444;-49
2022/09/07 06:58:32;;;;;;;3.03;1.90;;;20.00;99.90;;;;;;5049600;28;20416;-50
2022/09/07 07:00:58;;;;;;;2.30;2.00;;;20.20;99.90;;;;;;5049566;28;21103;-52
2022/09/07 07:03:23;;;;;;;2.50;1.70;;;20.40;99.90;;;;;;5050991;28;20436;-50
2022/09/07 07:05:51;;;;;;;4.90;1.90;;;20.50;99.90;;;;;;5049909;28;20443;-49
2022/09/07 07:08:17;;;;;;;4.27;1.90;;;20.60;99.90;;;;;;5049664;28;20273;-49
2022/09/07 07:10:43;;;;;;;2.07;1.93;;;20.80;99.90;;;;;;5050216;28;21037;-50
2022/09/07 07:13:09;;;;;;;3.13;1.77;;;20.90;99.90;;;;;;5050523;28;20187;-54
2022/09/07 07:15:35;;;;;;;3.63;1.80;;;21.10;99.90;;;;;;5050378;28;20456;-51
2022/09/07 07:18:00;;;;;;;2.33;1.90;;;21.30;99.90;;;;;;5049762;28;20276;-50
2022/09/07 07:20:26;;;;;;;2.37;1.67;;;21.40;99.90;;;;;;5053147;28;20186;-50
2022/09/07 07:22:52;;;;;;;2.27;1.53;;;21.40;99.90;;;;;;5049866;28;20839;-52
2022/09/07 07:25:18;;;;;;;1.87;1.70;;;21.50;99.90;;;;;;5049962;28;20424;-50
2022/09/07 07:27:44;;;;;;;3.07;1.90;;;21.60;99.90;;;;;;5052575;28;20188;-46
2022/09/07 07:30:15;;;;;;;1.97;1.80;;;21.60;99.90;;;;;;5058044;28;20838;-52
2022/09/07 07:32:41;;;;;;;2.10;1.73;;;21.60;99.90;;;;;;5053856;28;20782;-50
2022/09/07 07:35:08;;;;;;;5.30;1.97;;;21.70;99.90;;;;;;5070190;28;20904;-51
2022/09/07 07:37:35;;;;;;;2.00;1.77;;;21.70;99.90;;;;;;5068214;28;20440;-52
2022/09/07 07:40:07;;;;;;;2.90;1.60;;;21.80;99.90;;;;;;5070022;28;20422;-50
2022/09/07 07:42:34;;;;;;;2.43;1.90;;;21.80;99.90;;;;;;5049855;28;20444;-51
2022/09/07 07:45:00;;;;;;;4.03;1.73;;;21.80;99.90;;;;;;5050253;28;20482;-51
2022/09/07 07:47:26;;;;;;;2.10;1.83;;;21.90;99.90;;;;;;5049132;28;20511;-50
2022/09/07 07:49:52;;;;;;;2.13;1.90;;;21.90;99.90;;;;;;5049951;28;20515;-52
2022/09/07 07:52:18;;;;;;;2.57;1.80;;;21.90;99.90;;;;;;5044613;28;20181;-50
2022/09/07 07:54:44;;;;;;;2.77;2.07;;;21.80;99.90;;;;;;5049895;28;20196;-53
2022/09/07 07:57:10;;;;;;;1.90;1.77;;;21.70;99.90;;;;;;5048948;28;20213;-50
2022/09/07 07:59:36;;;;;;;3.30;2.13;;;21.70;99.90;;;;;;5050005;28;20412;-49
2022/09/07 08:02:07;;;;;;;2.57;2.27;;;21.80;99.90;;;;;;5049719;28;20450;-50
2022/09/07 08:04:33;;;;;;;2.40;1.80;;;21.90;99.90;;;;;;5049911;28;20439;-51
2022/09/07 08:07:00;;;;;;;6.73;2.70;;;21.90;99.90;;;;;;5048732;28;20506;-48
2022/09/07 08:09:26;;;;;;;3.27;2.37;;;22.00;99.90;;;;;;5049688;28;20434;-51
2022/09/07 08:11:51;;;;;;;5.20;2.53;;;22.00;99.90;;;;;;5049671;28;20420;-52
2022/09/07 08:14:17;;;;;;;2.73;2.50;;;22.00;99.90;;;;;;5049774;28;20197;-52
2022/09/07 08:16:44;;;;;;;2.90;2.10;;;22.10;99.90;;;;;;5048923;28;20815;-50
2022/09/07 08:19:10;;;;;;;2.93;2.27;;;22.30;99.90;;;;;;5052152;28;20470;-50
2022/09/07 08:21:35;;;;;;;2.60;2.40;;;22.30;99.90;;;;;;5049968;28;20527;-52
2022/09/07 08:24:02;;;;;;;3.23;2.37;;;22.30;99.90;;;;;;5043675;28;20507;-52
2022/09/07 08:26:28;;;;;;;5.37;2.40;;;22.20;99.90;;;;;;5047332;28;20190;-52
2022/09/07 08:28:54;;;;;;;2.70;2.50;;;22.10;99.90;;;;;;5047855;28;20428;-49
2022/09/07 08:31:19;;;;;;;3.17;2.10;;;22.10;99.90;;;;;;5048212;28;20285;-50
2022/09/07 08:33:45;;;;;;;3.10;2.37;;;22.00;99.90;;;;;;5049476;28;20212;-52
2022/09/07 08:36:13;;;;;;;2.80;2.37;;;22.00;99.90;;;;;;5052389;28;20247;-49
2022/09/07 08:38:39;;;;;;;2.97;2.77;;;22.00;99.90;;;;;;5045872;28;20174;-50
2022/09/07 08:41:52;;;;;;;2.57;2.37;;;22.10;99.90;;;;;;5050134;28;20408;-51
2022/09/07 08:44:26;;;;;;;2.90;2.60;;;22.20;99.90;;;;;;5067651;28;20611;-52
2022/09/07 08:47:10;;;;;;;3.20;2.70;;;22.30;99.90;;;;;;5051251;28;20447;-47
2022/09/07 08:49:44;;;;;;;4.73;3.30;;;22.40;99.90;;;;;;5053297;28;20416;-47
2022/09/07 08:52:17;;;;;;;3.50;3.20;;;22.40;99.90;;;;;;5053127;28;20422;-52
2022/09/07 08:54:52;;;;;;;4.70;4.30;;;22.50;99.90;;;;;;5052211;28;20447;-51
2022/09/07 08:57:25;;;;;;;3.97;3.67;;;22.40;99.90;;;;;;5052228;28;20468;-50
2022/09/07 09:00:02;;;;;;;6.10;3.70;;;22.40;99.90;;;;;;5053242;28;20443;-50
2022/09/07 09:02:28;;;;;;;4.73;4.20;;;22.30;99.90;;;;;;5053018;28;20563;-51
2022/09/07 09:04:54;;;;;;;5.27;4.77;;;22.30;99.90;;;;;;5052974;28;20440;-50
2022/09/07 09:07:22;;;;;;;4.57;4.17;;;22.20;99.90;;;;;;5051986;28;20420;-51
2022/09/07 09:10:00;;;;;;;4.27;3.97;;;22.30;99.90;;;;;;5053049;28;20194;-49
2022/09/07 09:12:51;;;;;;;5.17;4.70;;;22.40;99.90;;;;;;5052641;28;20424;-49
2022/09/07 09:15:40;;;;;;;4.90;4.40;;;22.40;99.90;;;;;;5052738;28;20424;-52
2022/09/07 09:18:26;;;;;;;7.60;4.40;;;22.60;99.90;;;;;;5051913;28;20515;-50
2022/09/07 09:20:57;;;;;;;5.40;4.90;;;22.60;99.90;;;;;;5055543;28;20498;-49
2022/09/07 09:23:33;;;;;;;6.40;4.93;;;22.50;99.90;;;;;;5052519;28;20458;-51
2022/09/07 09:26:16;;;;;;;4.40;4.00;;;22.30;99.90;;;;;;5052476;28;20420;-51
2022/09/07 09:28:42;;;;;;;4.23;3.93;;;22.30;99.90;;;;;;5051721;28;20486;-48
2022/09/07 09:31:18;;;;;;;4.60;4.30;;;22.30;99.90;;;;;;5052265;28;20462;-47
2022/09/07 09:34:04;;;;;;;5.83;3.97;;;22.40;99.90;;;;;;5052197;28;20189;-47
2022/09/07 09:36:33;;;;;;;4.10;3.80;;;22.50;99.90;;;;;;5050389;28;20451;-50
2022/09/07 09:39:02;;;;;;;5.53;4.50;;;22.90;99.90;;;;;;5052032;28;20416;-50
2022/09/07 09:41:37;;;;;;;4.77;4.43;;;23.20;99.90;;;;;;5052257;28;20408;-52
2022/09/07 09:44:03;;;;;;;5.27;3.63;;;23.40;99.90;;;;;;5052131;28;20432;-49
2022/09/07 09:46:33;;;;;;;3.53;2.97;;;23.60;99.90;;;;;;5052070;28;20413;-52
2022/09/07 09:49:18;;;;;;;3.10;2.70;;;23.70;99.90;;;;;;5051234;28;20220;-47
2022/09/07 09:51:51;;;;;;;2.33;2.13;;;23.90;99.90;;;;;;5052009;28;20938;-49
2022/09/07 09:54:50;;;;;;;3.70;2.87;;;23.90;99.90;;;;;;5052118;28;20969;-49
2022/09/07 09:57:36;;;;;;;3.70;3.37;;;23.90;99.90;;;;;;5038890;28;20544;-49
2022/09/07 10:00:04;;;;;;;3.07;2.77;;;24.00;99.90;;;;;;5051627;28;20439;-51
2022/09/07 10:02:32;;;;;;;5.43;3.07;;;24.10;99.90;;;;;;5051811;28;20942;-49
2022/09/07 10:04:57;;;;;;;2.80;2.60;;;24.10;99.90;;;;;;5051674;28;20440;-49
2022/09/07 10:07:27;;;;;;;3.50;2.73;;;24.00;99.90;;;;;;5050968;28;20416;-50
2022/09/07 10:09:54;;;;;;;3.40;2.63;;;24.00;99.90;;;;;;5050169;28;20190;-53
2022/09/07 10:12:35;;;;;;;3.10;2.80;;;23.90;99.90;;;;;;5051731;28;20424;-50
2022/09/07 10:15:04;;;;;;;3.73;2.97;;;23.80;99.90;;;;;;5051630;28;20435;-49
2022/09/07 10:17:34;;;;;;;3.33;2.80;;;24.00;99.90;;;;;;5051052;28;20408;-50
2022/09/07 10:20:20;;;;;;;2.80;2.33;;;24.10;99.90;;;;;;5054502;28;20845;-51
2022/09/07 10:22:52;;;;;;;3.13;2.70;;;24.10;99.90;;;;;;5056539;28;20485;-50
2022/09/07 10:25:32;;;;;;;2.80;2.60;;;24.20;99.90;;;;;;5071486;28;20411;-50
2022/09/07 10:28:11;;;;;;;4.17;2.37;;;24.50;99.90;;;;;;5070714;28;20503;-50
2022/09/07 10:31:01;;;;;;;2.67;2.47;;;24.50;99.90;;;;;;5071084;28;20407;-49
2022/09/07 10:33:45;;;;;;;2.20;2.03;;;24.40;99.90;;;;;;5071150;28;21180;-49
2022/09/07 10:36:14;;;;;;;2.93;2.40;;;24.40;99.90;;;;;;5071105;28;20462;-50
2022/09/07 10:38:52;;;;;;;2.70;2.50;;;24.40;99.90;;;;;;5068869;28;20411;-50
2022/09/07 10:41:24;;;;;;;2.97;2.77;;;24.50;99.90;;;;;;5053602;28;20436;-50
2022/09/07 10:43:51;;;;;;;2.87;2.67;;;24.50;99.90;;;;;;5055749;28;20424;-52
2022/09/07 10:46:31;;;;;;;3.60;3.10;;;24.50;99.90;;;;;;5051172;28;20417;-51
2022/09/07 10:49:17;;;;;;;2.83;2.63;;;24.70;99.90;;;;;;5050529;28;20470;-50
2022/09/07 10:52:06;;;;;;;3.30;2.87;;;24.90;99.90;;;;;;5045715;28;20927;-51
2022/09/07 10:54:53;;;;;;;4.47;2.70;;;24.80;99.90;;;;;;5048863;28;20503;-50
2022/09/07 10:57:50;;;;;;;5.40;3.23;;;24.80;99.90;;;;;;5048566;28;20501;-52
2022/09/07 11:00:21;;;;;;;2.50;2.27;;;24.70;99.90;;;;;;5051352;28;20424;-49
2022/09/07 11:03:02;;;;;;;3.40;2.40;;;24.50;99.90;;;;;;5050610;28;20416;-49
2022/09/07 11:05:33;;;;;;;2.20;2.00;;;24.50;99.90;;;;;;5049029;28;20526;-50
2022/09/07 11:08:32;;;;;;;2.80;2.60;;;24.50;99.90;;;;;;5049961;28;20452;-46
2022/09/07 11:11:31;;;;;;;2.67;2.03;;;24.40;99.90;;;;;;5049364;28;20479;-50
2022/09/07 11:14:03;;;;;;;1.87;1.73;;;24.40;99.90;;;;;;5050720;28;20494;-52
2022/09/07 11:16:33;;;;;;;2.30;1.87;;;24.60;99.90;;;;;;5049854;28;20460;-49
2022/09/07 11:19:11;;;;;;;2.17;1.83;;;24.70;99.90;;;;;;5061499;28;20957;-52
2022/09/07 11:21:43;;;;;;;2.10;1.90;;;24.90;99.90;;;;;;5050395;28;20420;-52
2022/09/07 11:24:37;;;;;;;2.40;1.93;;;25.00;99.90;;;;;;5049962;28;20416;-51
2022/09/07 11:27:17;;;;;;;2.90;2.00;;;25.20;99.90;;;;;;5060465;28;20433;-51
2022/09/07 11:29:47;;;;;;;3.23;2.13;;;25.30;99.90;;;;;;5068751;28;20435;-50
2022/09/07 11:32:20;;;;;;;1.73;1.63;;;25.30;99.90;;;;;;5052028;28;20442;-52
2022/09/07 11:35:11;;;;;;;3.70;1.90;;;25.40;99.90;;;;;;5070236;28;20416;-48
2022/09/07 11:37:53;;;;;;;2.27;1.60;;;25.50;99.90;;;;;;5067625;28;20431;-49
2022/09/07 11:40:28;;;;;;;3.40;2.03;;;25.60;99.90;;;;;;5064029;28;20416;-48
2022/09/07 11:43:15;;;;;;;5.00;2.27;;;25.60;99.90;;;;;;5049993;28;20451;-50
2022/09/07 11:45:50;;;;;;;3.27;2.30;;;25.70;99.90;;;;;;5049582;28;20422;-50
2022/09/07 11:48:31;;;;;;;3.00;2.07;;;25.50;99.90;;;;;;5048027;28;20424;-50
2022/09/07 11:51:01;;;;;;;3.13;1.93;;;25.60;99.90;;;;;;5048894;28;20477;-52
2022/09/07 11:53:31;;;;;;;2.10;1.90;;;25.70;99.90;;;;;;5049279;28;20449;-49
2022/09/07 11:56:04;;;;;;;3.97;1.90;;;25.60;99.90;;;;;;5050690;28;20458;-51
2022/09/07 11:59:24;;;;;;;2.40;2.20;;;25.70;99.90;;;;;;5050301;28;21024;-50
2022/09/07 12:01:53;;;;;;;3.13;2.33;;;25.70;99.90;;;;;;5066902;28;20423;-49
2022/09/07 12:04:24;;;;;;;3.33;2.47;;;25.50;99.90;;;;;;5050198;28;20890;-53
2022/09/07 12:07:17;;;;;;;2.70;2.00;;;25.40;99.90;;;;;;5059670;28;20438;-52
2022/09/07 12:10:08;;;;;;;3.20;2.40;;;25.30;99.90;;;;;;5073819;28;20986;-52
2022/09/07 12:13:03;;;;;;;2.70;2.23;;;25.20;99.90;;;;;;5072550;28;20443;-50
2022/09/07 12:15:53;;;;;;;2.93;1.73;;;25.30;99.90;;;;;;5073826;28;20455;-50
2022/09/07 12:18:53;;;;;;;2.60;2.10;;;25.30;99.90;;;;;;5073280;28;20744;-50
2022/09/07 12:21:43;;;;;;;1.90;1.80;;;25.40;99.90;;;;;;5050630;28;21004;-52
2022/09/07 12:24:47;;;;;;;3.00;2.33;;;25.50;99.90;;;;;;5052456;28;20412;-51
2022/09/07 12:27:18;;;;;;;2.20;2.00;;;25.40;99.90;;;;;;5053031;28;20469;-48
2022/09/07 12:29:51;;;;;;;3.37;2.40;;;25.30;99.90;;;;;;5053591;28;20549;-49
2022/09/07 12:32:48;;;;;;;3.20;1.93;;;25.40;99.90;;;;;;5053637;28;20955;-53
2022/09/07 12:35:25;;;;;;;2.30;2.10;;;25.40;99.90;;;;;;5053348;28;20413;-50
2022/09/07 12:38:15;;;;;;;2.30;2.10;;;25.30;99.90;;;;;;5050553;28;20538;-50
2022/09/07 12:40:53;;;;;;;2.40;2.20;;;25.30;99.90;;;;;;5051456;28;20463;-52
2022/09/07 12:43:19;;;;;;;1.90;1.80;;;25.30;99.90;;;;;;5052656;28;20470;-52
2022/09/07 12:45:45;;;;;;;3.00;2.70;;;25.40;99.90;;;;;;5051984;28;20428;-51
2022/09/07 12:48:16;;;;;;;2.80;2.60;;;25.50;99.90;;;;;;5052352;28;20589;-50
2022/09/07 12:51:01;;;;;;;2.40;2.20;;;25.40;99.90;;;;;;5053246;28;20214;-49
2022/09/07 12:53:46;;;;;;;2.93;2.23;;;25.40;99.90;;;;;;5053066;28;20448;-51
2022/09/07 12:56:45;;;;;;;2.90;2.60;;;25.40;99.90;;;;;;5053092;28;20504;-47
2022/09/07 12:59:35;;;;;;;2.20;2.00;;;25.40;99.90;;;;;;5053177;28;20428;-52
2022/09/07 13:02:38;;;;;;;2.97;2.73;;;25.20;99.90;;;;;;5053008;28;20939;-51
2022/09/07 13:05:37;;;;;;;5.00;2.93;;;25.10;99.90;;;;;;5051499;28;20451;-49
2022/09/07 13:08:14;;;;;;;2.90;2.60;;;25.10;99.90;;;;;;5052120;28;20423;-50
2022/09/07 13:10:42;;;;;;;5.17;2.67;;;25.00;99.90;;;;;;5052917;28;20806;-52
2022/09/07 13:13:13;;;;;;;6.60;3.20;;;25.10;99.90;;;;;;5052350;28;20507;-49
2022/09/07 13:15:45;;;;;;;4.00;3.23;;;25.00;99.90;;;;;;5052761;28;20474;-52